Time,TemperatureF,DewpointF,PressureIn,WindDirection,WindDirectionDegrees,WindSpeedMPH,WindSpeedGustMPH,Humidity,HourlyPrecipIn,Conditions,Clouds,dailyrainin,SoftwareType,DateUTC
2013-03-14 00:00:00,52.7,40.6,29.94,NNW,337,0.0,0.0,63,0.00,,,0.00,WUHU21623XXSP,2013-03-14 07:00:00,
2013-03-14 00:05:00,52.7,40.2,29.94,NNW,337,0.0,0.0,62,0.00,,,0.00,WUHU21623XXSP,2013-03-14 07:05:00,
2013-03-14 00:10:00,53.2,40.6,29.94,NW,315,0.0,0.0,62,0.00,,,0.00,WUHU21623XXSP,2013-03-14 07:10:00,
2013-03-14 00:15:00,53.6,40.6,29.94,NW,315,0.0,0.0,61,0.00,,,0.00,WUHU21623XXSP,2013-03-14 07:15:00,
2013-03-14 00:20:00,53.2,40.2,29.94,NW,315,0.0,0.0,61,0.00,,,0.00,WUHU21623XXSP,2013-03-14 07:20:00,
2013-03-14 00:25:00,52.7,39.7,29.94,NW,315,0.0,0.0,61,0.00,,,0.00,WUHU21623XXSP,2013-03-14 07:25:00,
2013-03-14 00:30:00,52.5,39.5,29.94,NW,315,0.0,0.0,61,0.00,,,0.00,WUHU21623XXSP,2013-03-14 07:30:00,
2013-03-14 00:35:00,52.1,39.2,29.94,NW,315,0.0,0.0,61,0.00,,,0.00,WUHU21623XXSP,2013-03-14 07:35:00,
2013-03-14 00:40:00,52.0,39.1,29.94,NW,315,0.0,0.0,61,0.00,,,0.00,WUHU21623XXSP,2013-03-14 07:40:00,
2013-03-14 00:45:00,51.8,38.9,29.94,NW,315,0.0,0.0,61,0.00,,,0.00,WUHU21623XXSP,2013-03-14 07:45:00,
2013-03-14 00:50:00,51.8,39.3,29.94,NW,315,0.0,0.0,62,0.00,,,0.00,WUHU21623XXSP,2013-03-14 07:50:00,
2013-03-14 00:55:00,51.4,38.9,29.94,NW,315,0.0,0.0,62,0.00,,,0.00,WUHU21623XXSP,2013-03-14 07:55:00,
2013-03-14 01:00:00,51.4,38.9,29.94,NW,315,0.0,0.0,62,0.00,,,0.00,WUHU21623XXSP,2013-03-14 08:00:00,
2013-03-14 01:05:00,51.4,38.9,29.94,NW,315,0.0,0.0,62,0.00,,,0.00,WUHU21623XXSP,2013-03-14 08:05:00,
2013-03-14 01:10:00,51.8,39.3,29.93,NW,315,0.0,0.0,62,0.00,,,0.00,WUHU21623XXSP,2013-03-14 08:10:00,
2013-03-14 01:15:00,51.8,39.3,29.94,NW,315,0.0,0.0,62,0.00,,,0.00,WUHU21623XXSP,2013-03-14 08:15:00,
2013-03-14 01:20:00,51.4,38.9,29.94,NW,315,0.0,0.0,62,0.00,,,0.00,WUHU21623XXSP,2013-03-14 08:20:00,
2013-03-14 01:25:00,51.4,38.9,29.94,NW,315,0.0,0.7,62,0.00,,,0.00,WUHU21623XXSP,2013-03-14 08:25:00,
2013-03-14 01:30:00,51.4,38.9,29.94,NW,315,0.0,0.7,62,0.00,,,0.00,WUHU21623XXSP,2013-03-14 08:30:00,
2013-03-14 01:35:00,51.2,39.1,29.93,NW,315,0.0,0.0,63,0.00,,,0.00,WUHU21623XXSP,2013-03-14 08:35:00,
2013-03-14 01:40:00,50.9,38.9,29.93,NW,315,0.0,0.0,63,0.00,,,0.00,WUHU21623XXSP,2013-03-14 08:40:00,
2013-03-14 01:45:00,50.7,38.7,29.93,NW,315,0.0,0.0,63,0.00,,,0.00,WUHU21623XXSP,2013-03-14 08:45:00,
2013-03-14 01:50:00,50.5,38.5,29.93,NW,315,0.0,0.0,63,0.00,,,0.00,WUHU21623XXSP,2013-03-14 08:50:00,
2013-03-14 01:55:00,50.3,38.3,29.94,NW,315,0.0,0.0,63,0.00,,,0.00,WUHU21623XXSP,2013-03-14 08:55:00,
2013-03-14 02:00:00,50.2,38.6,29.94,NW,315,0.0,0.0,64,0.00,,,0.00,WUHU21623XXSP,2013-03-14 09:00:00,
2013-03-14 02:05:00,49.8,38.2,29.94,NW,315,0.0,0.0,64,0.00,,,0.00,WUHU21623XXSP,2013-03-14 09:05:00,
2013-03-14 02:10:00,49.6,38.0,29.94,NW,315,0.0,0.0,64,0.00,,,0.00,WUHU21623XXSP,2013-03-14 09:10:00,
2013-03-14 02:15:00,49.8,38.2,29.94,NW,315,0.0,0.0,64,0.00,,,0.00,WUHU21623XXSP,2013-03-14 09:15:00,
2013-03-14 02:20:00,50.0,38.0,29.93,NW,315,0.0,0.0,63,0.00,,,0.00,WUHU21623XXSP,2013-03-14 09:20:00,
2013-03-14 02:25:00,49.8,38.2,29.93,NW,315,0.0,0.0,64,0.00,,,0.00,WUHU21623XXSP,2013-03-14 09:25:00,
2013-03-14 02:30:00,49.6,38.0,29.93,NW,315,0.0,0.0,64,0.00,,,0.00,WUHU21623XXSP,2013-03-14 09:30:00,
2013-03-14 02:35:00,49.4,37.8,29.94,NW,315,0.0,0.0,64,0.00,,,0.00,WUHU21623XXSP,2013-03-14 09:35:00,
2013-03-14 02:40:00,49.1,37.6,29.94,NW,315,0.0,0.0,64,0.00,,,0.00,WUHU21623XXSP,2013-03-14 09:40:00,
2013-03-14 02:45:00,49.1,37.6,29.94,NW,315,0.0,0.0,64,0.00,,,0.00,WUHU21623XXSP,2013-03-14 09:45:00,
2013-03-14 02:50:00,49.1,37.6,29.94,NW,315,0.0,0.0,64,0.00,,,0.00,WUHU21623XXSP,2013-03-14 09:50:00,
2013-03-14 02:55:00,48.9,37.4,29.94,NW,315,0.0,0.0,64,0.00,,,0.00,WUHU21623XXSP,2013-03-14 09:55:00,
2013-03-14 03:00:00,48.7,37.2,29.94,NW,315,0.0,0.0,64,0.00,,,0.00,WUHU21623XXSP,2013-03-14 10:00:00,
2013-03-14 03:05:00,48.5,37.4,29.94,NW,315,0.0,0.0,65,0.00,,,0.00,WUHU21623XXSP,2013-03-14 10:05:00,
2013-03-14 03:10:00,48.4,37.3,29.94,NW,315,0.0,0.0,65,0.00,,,0.00,WUHU21623XXSP,2013-03-14 10:10:00,
2013-03-14 03:15:00,48.2,37.1,29.93,NW,315,0.0,0.0,65,0.00,,,0.00,WUHU21623XXSP,2013-03-14 10:15:00,
2013-03-14 03:20:00,47.8,36.7,29.94,NW,315,0.0,0.0,65,0.00,,,0.00,WUHU21623XXSP,2013-03-14 10:20:00,
2013-03-14 03:25:00,47.8,36.7,29.93,NW,315,0.0,0.0,65,0.00,,,0.00,WUHU21623XXSP,2013-03-14 10:25:00,
2013-03-14 03:30:00,47.6,36.5,29.93,NW,315,0.0,0.0,65,0.00,,,0.00,WUHU21623XXSP,2013-03-14 10:30:00,
2013-03-14 03:35:00,47.6,36.5,29.93,NW,315,0.0,0.0,65,0.00,,,0.00,WUHU21623XXSP,2013-03-14 10:35:00,
2013-03-14 03:40:00,47.6,36.5,29.93,NW,315,0.0,0.0,65,0.00,,,0.00,WUHU21623XXSP,2013-03-14 10:40:00,
2013-03-14 03:45:00,47.6,36.5,29.92,NW,315,0.0,0.0,65,0.00,,,0.00,WUHU21623XXSP,2013-03-14 10:45:00,
2013-03-14 03:50:00,47.8,36.7,29.92,NW,315,0.0,0.0,65,0.00,,,0.00,WUHU21623XXSP,2013-03-14 10:50:00,
2013-03-14 03:55:00,48.2,36.7,29.92,NW,315,0.0,0.0,64,0.00,,,0.00,WUHU21623XXSP,2013-03-14 10:55:00,
2013-03-14 04:00:00,47.8,36.7,29.92,NW,315,0.0,0.0,65,0.00,,,0.00,WUHU21623XXSP,2013-03-14 11:00:00,
2013-03-14 04:05:00,47.8,36.7,29.92,NW,315,0.0,0.0,65,0.00,,,0.00,WUHU21623XXSP,2013-03-14 11:05:00,
2013-03-14 04:10:00,47.6,36.5,29.92,NW,315,0.0,0.0,65,0.00,,,0.00,WUHU21623XXSP,2013-03-14 11:10:00,
2013-03-14 04:15:00,47.6,36.5,29.92,NW,315,0.0,0.0,65,0.00,,,0.00,WUHU21623XXSP,2013-03-14 11:15:00,
2013-03-14 04:20:00,47.6,36.5,29.92,NW,315,0.0,0.0,65,0.00,,,0.00,WUHU21623XXSP,2013-03-14 11:20:00,
2013-03-14 04:25:00,47.6,36.5,29.92,NW,315,0.0,0.0,65,0.00,,,0.00,WUHU21623XXSP,2013-03-14 11:25:00,
2013-03-14 04:30:00,47.3,36.2,29.91,NW,315,0.0,0.0,65,0.00,,,0.00,WUHU21623XXSP,2013-03-14 11:30:00,
2013-03-14 04:35:00,46.9,36.2,29.91,NW,315,0.0,0.0,66,0.00,,,0.00,WUHU21623XXSP,2013-03-14 11:35:00,
2013-03-14 04:40:00,46.7,36.0,29.91,NW,315,0.0,0.0,66,0.00,,,0.00,WUHU21623XXSP,2013-03-14 11:40:00,
2013-03-14 04:45:00,46.6,36.3,29.91,NW,315,0.0,0.0,67,0.00,,,0.00,WUHU21623XXSP,2013-03-14 11:45:00,
2013-03-14 04:50:00,46.4,36.1,29.91,NW,315,0.0,0.0,67,0.00,,,0.00,WUHU21623XXSP,2013-03-14 11:50:00,
2013-03-14 04:55:00,46.2,35.9,29.91,NW,315,0.0,0.0,67,0.00,,,0.00,WUHU21623XXSP,2013-03-14 11:55:00,
2013-03-14 05:00:00,46.2,35.9,29.91,NW,315,0.0,0.0,67,0.00,,,0.00,WUHU21623XXSP,2013-03-14 12:00:00,
2013-03-14 05:05:00,46.0,35.8,29.91,NW,315,0.0,0.0,67,0.00,,,0.00,WUHU21623XXSP,2013-03-14 12:05:00,
2013-03-14 05:10:00,46.0,35.8,29.91,NW,315,0.0,0.0,67,0.00,,,0.00,WUHU21623XXSP,2013-03-14 12:10:00,
2013-03-14 05:15:00,45.8,35.6,29.91,NW,315,0.0,0.0,67,0.00,,,0.00,WUHU21623XXSP,2013-03-14 12:15:00,
2013-03-14 05:20:00,45.8,35.6,29.91,NW,315,0.0,0.0,67,0.00,,,0.00,WUHU21623XXSP,2013-03-14 12:20:00,
2013-03-14 05:25:00,46.0,35.4,29.92,NW,315,0.0,0.0,66,0.00,,,0.00,WUHU21623XXSP,2013-03-14 12:25:00,
2013-03-14 05:30:00,46.0,35.4,29.92,NW,315,0.0,0.0,66,0.00,,,0.00,WUHU21623XXSP,2013-03-14 12:30:00,
2013-03-14 05:35:00,46.4,35.4,29.92,NW,315,0.0,0.0,65,0.00,,,0.00,WUHU21623XXSP,2013-03-14 12:35:00,
2013-03-14 05:40:00,46.4,35.4,29.92,NNW,337,0.0,0.0,65,0.00,,,0.00,WUHU21623XXSP,2013-03-14 12:40:00,
2013-03-14 05:45:00,46.4,35.8,29.92,NNW,337,0.0,0.0,66,0.00,,,0.00,WUHU21623XXSP,2013-03-14 12:45:00,
2013-03-14 05:50:00,46.4,35.8,29.92,NNW,337,0.0,0.0,66,0.00,,,0.00,WUHU21623XXSP,2013-03-14 12:50:00,
2013-03-14 05:55:00,46.4,35.8,29.91,NNW,337,0.0,0.0,66,0.00,,,0.00,WUHU21623XXSP,2013-03-14 12:55:00,
2013-03-14 06:00:00,46.4,36.1,29.92,NNW,337,0.0,0.0,67,0.00,,,0.00,WUHU21623XXSP,2013-03-14 13:00:00,
2013-03-14 06:05:00,46.2,35.9,29.92,NNW,337,0.0,0.0,67,0.00,,,0.00,WUHU21623XXSP,2013-03-14 13:05:00,
2013-03-14 06:10:00,46.0,36.1,29.92,SSW,202,0.0,0.0,68,0.00,,,0.00,WUHU21623XXSP,2013-03-14 13:10:00,
2013-03-14 06:15:00,46.0,36.1,29.92,SSW,202,0.0,0.0,68,0.00,,,0.00,WUHU21623XXSP,2013-03-14 13:15:00,
2013-03-14 06:20:00,45.8,35.9,29.92,SSW,202,0.0,0.0,68,0.00,,,0.00,WUHU21623XXSP,2013-03-14 13:20:00,
2013-03-14 06:25:00,45.8,35.6,29.92,SSW,202,0.0,0.0,67,0.00,,,0.00,WUHU21623XXSP,2013-03-14 13:25:00,
2013-03-14 06:30:00,45.5,35.3,29.92,SSW,202,0.0,0.0,67,0.00,,,0.00,WUHU21623XXSP,2013-03-14 13:30:00,
2013-03-14 06:35:00,45.5,35.3,29.92,SSW,202,0.0,0.0,67,0.00,,,0.00,WUHU21623XXSP,2013-03-14 13:35:00,
2013-03-14 06:40:00,45.5,35.3,29.92,SSW,202,0.0,0.0,67,0.00,,,0.00,WUHU21623XXSP,2013-03-14 13:40:00,
2013-03-14 06:45:00,45.5,35.3,29.92,WSW,247,0.0,0.0,67,0.00,,,0.00,WUHU21623XXSP,2013-03-14 13:45:00,
2013-03-14 06:50:00,45.5,35.3,29.92,West,270,0.0,0.0,67,0.00,,,0.00,WUHU21623XXSP,2013-03-14 13:50:00,
2013-03-14 06:55:00,45.5,35.3,29.92,West,270,0.0,0.0,67,0.00,,,0.00,WUHU21623XXSP,2013-03-14 13:55:00,
2013-03-14 07:00:00,45.5,35.3,29.92,West,270,0.0,0.0,67,0.00,,,0.00,WUHU21623XXSP,2013-03-14 14:00:00,
2013-03-14 07:05:00,45.7,35.5,29.92,West,270,0.0,0.0,67,0.00,,,0.00,WUHU21623XXSP,2013-03-14 14:05:00,
2013-03-14 07:10:00,45.5,35.3,29.91,WSW,247,0.0,0.0,67,0.00,,,0.00,WUHU21623XXSP,2013-03-14 14:10:00,
2013-03-14 07:15:00,45.3,35.5,29.92,WSW,247,0.0,0.0,68,0.00,,,0.00,WUHU21623XXSP,2013-03-14 14:15:00,
2013-03-14 07:20:00,45.1,34.9,29.92,WSW,247,0.0,0.0,67,0.00,,,0.00,WUHU21623XXSP,2013-03-14 14:20:00,
2013-03-14 07:25:00,45.1,34.9,29.92,WSW,247,0.0,0.0,67,0.00,,,0.00,WUHU21623XXSP,2013-03-14 14:25:00,
2013-03-14 07:30:00,44.9,34.7,29.92,WSW,247,0.0,0.0,67,0.00,,,0.00,WUHU21623XXSP,2013-03-14 14:30:00,
2013-03-14 07:35:00,44.8,35.3,29.92,WSW,247,0.0,0.0,69,0.00,,,0.00,WUHU21623XXSP,2013-03-14 14:35:00,
2013-03-14 07:40:00,44.9,35.8,29.93,WSW,247,0.0,0.0,70,0.00,,,0.00,WUHU21623XXSP,2013-03-14 14:40:00,
2013-03-14 07:45:00,45.1,36.3,29.93,WSW,247,0.0,0.0,71,0.00,,,0.00,WUHU21623XXSP,2013-03-14 14:45:00,
2013-03-14 07:50:00,44.8,36.4,29.93,WSW,247,0.0,0.0,72,0.00,,,0.00,WUHU21623XXSP,2013-03-14 14:50:00,
2013-03-14 07:55:00,44.6,36.2,29.93,WSW,247,0.0,0.0,72,0.00,,,0.00,WUHU21623XXSP,2013-03-14 14:55:00,
2013-03-14 08:00:00,44.2,35.5,29.92,WSW,247,0.0,0.0,71,0.00,,,0.00,WUHU21623XXSP,2013-03-14 15:00:00,
2013-03-14 08:05:00,44.2,35.8,29.93,WSW,247,0.0,0.0,72,0.00,,,0.00,WUHU21623XXSP,2013-03-14 15:05:00,
2013-03-14 08:10:00,44.8,37.1,29.93,WSW,247,0.0,0.0,74,0.00,,,0.00,WUHU21623XXSP,2013-03-14 15:10:00,
2013-03-14 08:15:00,45.1,37.7,29.93,WSW,247,0.0,0.0,75,0.00,,,0.00,WUHU21623XXSP,2013-03-14 15:15:00,
2013-03-14 08:20:00,45.3,37.9,29.94,WSW,247,0.0,0.0,75,0.00,,,0.00,WUHU21623XXSP,2013-03-14 15:20:00,
2013-03-14 08:25:00,45.8,39.0,29.94,WSW,247,0.0,0.0,77,0.00,,,0.00,WUHU21623XXSP,2013-03-14 15:25:00,
2013-03-14 08:30:00,46.2,39.4,29.94,WSW,247,0.0,0.0,77,0.00,,,0.00,WUHU21623XXSP,2013-03-14 15:30:00,
2013-03-14 08:35:00,46.7,40.2,29.94,WSW,247,0.0,0.0,78,0.00,,,0.00,WUHU21623XXSP,2013-03-14 15:35:00,
2013-03-14 08:40:00,47.1,41.0,29.94,WSW,247,0.0,0.0,79,0.00,,,0.00,WUHU21623XXSP,2013-03-14 15:40:00,
2013-03-14 08:45:00,47.6,41.8,29.94,WSW,247,0.0,0.0,80,0.00,,,0.00,WUHU21623XXSP,2013-03-14 15:45:00,
2013-03-14 08:50:00,48.2,42.4,29.95,WSW,247,0.0,0.0,80,0.00,,,0.00,WUHU21623XXSP,2013-03-14 15:50:00,
2013-03-14 08:55:00,48.7,43.2,29.95,WSW,247,0.0,0.0,81,0.00,,,0.00,WUHU21623XXSP,2013-03-14 15:55:00,
2013-03-14 09:00:00,49.4,43.8,29.96,WSW,247,0.0,0.0,81,0.00,,,0.00,WUHU21623XXSP,2013-03-14 16:00:00,
2013-03-14 09:05:00,49.8,44.5,29.96,WSW,247,0.0,0.0,82,0.00,,,0.00,WUHU21623XXSP,2013-03-14 16:05:00,
2013-03-14 09:10:00,50.3,45.0,29.96,WSW,247,0.0,0.0,82,0.00,,,0.00,WUHU21623XXSP,2013-03-14 16:10:00,
2013-03-14 09:15:00,50.7,45.4,29.97,WSW,247,0.0,0.0,82,0.00,,,0.00,WUHU21623XXSP,2013-03-14 16:15:00,
2013-03-14 09:20:00,51.2,45.9,29.97,WSW,247,0.0,0.0,82,0.00,,,0.00,WUHU21623XXSP,2013-03-14 16:20:00,
2013-03-14 09:25:00,51.4,45.8,29.97,WSW,247,0.0,0.0,81,0.00,,,0.00,WUHU21623XXSP,2013-03-14 16:25:00,
2013-03-14 09:30:00,51.8,46.2,29.97,WSW,247,0.0,0.0,81,0.00,,,0.00,WUHU21623XXSP,2013-03-14 16:30:00,
2013-03-14 09:35:00,52.1,46.5,29.98,WSW,247,0.0,0.0,81,0.00,,,0.00,WUHU21623XXSP,2013-03-14 16:35:00,
2013-03-14 09:40:00,52.3,46.4,29.98,WSW,247,0.0,0.0,80,0.00,,,0.00,WUHU21623XXSP,2013-03-14 16:40:00,
2013-03-14 09:45:00,52.9,46.6,29.98,WSW,247,0.0,0.0,79,0.00,,,0.00,WUHU21623XXSP,2013-03-14 16:45:00,
2013-03-14 09:50:00,53.2,46.6,29.98,WSW,247,0.0,0.0,78,0.00,,,0.00,WUHU21623XXSP,2013-03-14 16:50:00,
2013-03-14 09:55:00,53.9,47.3,29.98,WSW,247,0.0,0.0,78,0.00,,,0.00,WUHU21623XXSP,2013-03-14 16:55:00,
2013-03-14 10:00:00,54.7,47.7,29.98,WSW,247,0.0,0.0,77,0.00,,,0.00,WUHU21623XXSP,2013-03-14 17:00:00,
2013-03-14 10:05:00,55.4,48.0,29.98,SSW,202,0.0,0.0,76,0.00,,,0.00,WUHU21623XXSP,2013-03-14 17:05:00,
2013-03-14 10:10:00,56.3,48.2,29.99,SSW,202,0.0,0.0,74,0.00,,,0.00,WUHU21623XXSP,2013-03-14 17:10:00,
2013-03-14 10:15:00,57.0,48.5,29.99,SSW,202,0.0,0.0,73,0.00,,,0.00,WUHU21623XXSP,2013-03-14 17:15:00,
2013-03-14 10:20:00,58.1,49.2,29.99,SSW,202,0.0,0.0,72,0.00,,,0.00,WUHU21623XXSP,2013-03-14 17:20:00,
2013-03-14 10:25:00,58.6,49.0,30.00,SSW,202,0.0,0.0,70,0.00,,,0.00,WUHU21623XXSP,2013-03-14 17:25:00,
2013-03-14 10:30:00,59.3,49.3,29.99,SSW,202,0.0,3.1,69,0.00,,,0.00,WUHU21623XXSP,2013-03-14 17:30:00,
2013-03-14 10:35:00,59.9,49.8,30.00,West,270,0.0,3.1,69,0.00,,,0.00,WUHU21623XXSP,2013-03-14 17:35:00,
2013-03-14 10:40:00,60.8,50.3,30.00,West,270,0.0,0.0,68,0.00,,,0.00,WUHU21623XXSP,2013-03-14 17:40:00,
2013-03-14 10:45:00,61.5,50.6,30.01,NW,315,0.0,0.0,67,0.00,,,0.00,WUHU21623XXSP,2013-03-14 17:45:00,
2013-03-14 10:50:00,61.9,50.6,30.00,WNW,292,0.0,0.0,66,0.00,,,0.00,WUHU21623XXSP,2013-03-14 17:50:00,
2013-03-14 10:55:00,62.2,50.9,30.00,WNW,292,0.0,0.0,66,0.00,,,0.00,WUHU21623XXSP,2013-03-14 17:55:00,
2013-03-14 11:00:00,62.4,51.0,30.00,WNW,292,0.0,0.0,66,0.00,,,0.00,WUHU21623XXSP,2013-03-14 18:00:00,
2013-03-14 11:05:00,63.1,51.7,30.00,WNW,292,0.0,0.0,66,0.00,,,0.00,WUHU21623XXSP,2013-03-14 18:05:00,
2013-03-14 11:10:00,63.5,51.7,30.00,SSW,202,0.0,0.0,65,0.00,,,0.00,WUHU21623XXSP,2013-03-14 18:10:00,
2013-03-14 11:15:00,64.0,51.7,30.00,SSW,202,0.0,0.0,64,0.00,,,0.00,WUHU21623XXSP,2013-03-14 18:15:00,
2013-03-14 11:20:00,64.7,52.0,30.00,SW,225,0.0,0.0,63,0.00,,,0.00,WUHU21623XXSP,2013-03-14 18:20:00,
2013-03-14 11:25:00,65.1,51.9,30.00,SW,225,0.0,0.0,62,0.00,,,0.00,WUHU21623XXSP,2013-03-14 18:25:00,
2013-03-14 11:30:00,65.8,52.6,30.00,SSE,157,0.0,0.0,62,0.00,,,0.00,WUHU21623XXSP,2013-03-14 18:30:00,
2013-03-14 11:35:00,65.8,51.7,30.00,SW,225,0.0,0.9,60,0.00,,,0.00,WUHU21623XXSP,2013-03-14 18:35:00,
2013-03-14 11:40:00,66.5,52.3,30.00,WSW,247,0.0,1.8,60,0.00,,,0.00,WUHU21623XXSP,2013-03-14 18:40:00,
2013-03-14 11:45:00,67.1,52.9,30.00,West,270,0.0,1.8,60,0.00,,,0.00,WUHU21623XXSP,2013-03-14 18:45:00,
2013-03-14 11:50:00,67.8,53.1,30.00,WNW,292,4.7,4.7,59,0.00,,,0.00,WUHU21623XXSP,2013-03-14 18:50:00,
2013-03-14 11:55:00,68.3,53.1,30.00,WNW,292,0.0,4.7,58,0.00,,,0.00,WUHU21623XXSP,2013-03-14 18:55:00,
2013-03-14 12:00:00,68.9,54.1,30.00,NW,315,1.6,7.6,59,0.00,,,0.00,WUHU21623XXSP,2013-03-14 19:00:00,
2013-03-14 12:05:00,69.2,54.0,30.00,West,270,0.0,8.3,58,0.00,,,0.00,WUHU21623XXSP,2013-03-14 19:05:00,
2013-03-14 12:10:00,69.4,53.7,30.00,NNW,337,3.4,8.3,57,0.00,,,0.00,WUHU21623XXSP,2013-03-14 19:10:00,
2013-03-14 12:15:00,70.0,54.2,30.00,NNW,337,0.0,7.8,57,0.00,,,0.00,WUHU21623XXSP,2013-03-14 19:15:00,
2013-03-14 12:20:00,69.6,53.8,30.00,SSE,157,0.0,4.7,57,0.00,,,0.00,WUHU21623XXSP,2013-03-14 19:20:00,
2013-03-14 12:25:00,69.8,53.5,29.99,West,270,0.0,4.7,56,0.00,,,0.00,WUHU21623XXSP,2013-03-14 19:25:00,
2013-03-14 12:30:00,69.8,53.5,30.00,WSW,247,0.0,1.1,56,0.00,,,0.00,WUHU21623XXSP,2013-03-14 19:30:00,
2013-03-14 12:35:00,70.0,53.7,29.99,West,270,0.0,0.0,56,0.00,,,0.00,WUHU21623XXSP,2013-03-14 19:35:00,
2013-03-14 12:40:00,69.8,53.5,30.00,WNW,292,1.6,3.8,56,0.00,,,0.00,WUHU21623XXSP,2013-03-14 19:40:00,
2013-03-14 12:45:00,70.1,53.8,30.00,West,270,0.0,3.8,56,0.00,,,0.00,WUHU21623XXSP,2013-03-14 19:45:00,
2013-03-14 12:50:00,70.3,54.0,29.99,West,270,0.0,6.5,56,0.00,,,0.00,WUHU21623XXSP,2013-03-14 19:50:00,
2013-03-14 12:55:00,70.7,54.9,29.99,NW,315,0.0,7.8,57,0.00,,,0.00,WUHU21623XXSP,2013-03-14 19:55:00,
2013-03-14 13:00:00,70.7,54.4,29.99,SW,225,0.0,7.8,56,0.00,,,0.00,WUHU21623XXSP,2013-03-14 20:00:00,
2013-03-14 13:05:00,71.0,54.7,29.99,WSW,247,1.1,6.3,56,0.00,,,0.00,WUHU21623XXSP,2013-03-14 20:05:00,
2013-03-14 13:10:00,70.9,55.1,30.00,West,270,0.0,6.3,57,0.00,,,0.00,WUHU21623XXSP,2013-03-14 20:10:00,
2013-03-14 13:15:00,71.2,55.3,30.00,WNW,292,0.0,10.5,57,0.00,,,0.00,WUHU21623XXSP,2013-03-14 20:15:00,
2013-03-14 13:20:00,71.0,54.7,30.00,WSW,247,7.2,10.5,56,0.00,,,0.00,WUHU21623XXSP,2013-03-14 20:20:00,
2013-03-14 13:25:00,70.7,54.4,30.00,SW,225,6.5,10.5,56,0.00,,,0.00,WUHU21623XXSP,2013-03-14 20:25:00,
2013-03-14 13:30:00,71.0,54.7,30.00,West,270,0.0,10.5,56,0.00,,,0.00,WUHU21623XXSP,2013-03-14 20:30:00,
2013-03-14 13:35:00,71.9,55.0,29.99,WNW,292,0.0,8.7,55,0.00,,,0.00,WUHU21623XXSP,2013-03-14 20:35:00,
2013-03-14 13:40:00,72.1,54.7,29.99,West,270,0.0,8.7,54,0.00,,,0.00,WUHU21623XXSP,2013-03-14 20:40:00,
2013-03-14 13:45:00,72.7,55.2,29.99,West,270,0.0,6.0,54,0.00,,,0.00,WUHU21623XXSP,2013-03-14 20:45:00,
2013-03-14 13:50:00,73.0,55.5,29.99,WSW,247,6.5,10.7,54,0.00,,,0.00,WUHU21623XXSP,2013-03-14 20:50:00,
2013-03-14 13:55:00,73.0,55.5,29.99,WSW,247,6.5,11.0,54,0.00,,,0.00,WUHU21623XXSP,2013-03-14 20:55:00,
2013-03-14 14:00:00,73.0,55.5,29.99,WSW,247,0.0,11.0,54,0.00,,,0.00,WUHU21623XXSP,2013-03-14 21:00:00,
2013-03-14 14:05:00,73.2,55.7,29.99,WSW,247,0.0,10.5,54,0.00,,,0.00,WUHU21623XXSP,2013-03-14 21:05:00,
2013-03-14 14:10:00,73.4,55.9,29.99,WSW,247,1.6,7.8,54,0.00,,,0.00,WUHU21623XXSP,2013-03-14 21:10:00,
2013-03-14 14:15:00,73.4,55.9,29.99,WNW,292,7.6,8.1,54,0.00,,,0.00,WUHU21623XXSP,2013-03-14 21:15:00,
2013-03-14 14:20:00,73.6,56.1,29.98,WNW,292,4.3,8.9,54,0.00,,,0.00,WUHU21623XXSP,2013-03-14 21:20:00,
2013-03-14 14:25:00,73.6,56.1,29.98,WSW,247,0.0,8.9,54,0.00,,,0.00,WUHU21623XXSP,2013-03-14 21:25:00,
2013-03-14 14:30:00,73.7,56.2,29.98,SW,225,0.0,7.2,54,0.00,,,0.00,WUHU21623XXSP,2013-03-14 21:30:00,
2013-03-14 14:35:00,73.9,56.3,29.98,West,270,7.8,9.4,54,0.00,,,0.00,WUHU21623XXSP,2013-03-14 21:35:00,
2013-03-14 14:40:00,74.1,56.5,29.98,West,270,0.0,9.4,54,0.00,,,0.00,WUHU21623XXSP,2013-03-14 21:40:00,
2013-03-14 14:45:00,74.3,56.2,29.98,NW,315,6.7,10.5,53,0.00,,,0.00,WUHU21623XXSP,2013-03-14 21:45:00,
2013-03-14 14:50:00,74.6,56.5,29.98,WSW,247,0.0,10.5,53,0.00,,,0.00,WUHU21623XXSP,2013-03-14 21:50:00,
2013-03-14 14:55:00,74.8,56.7,29.98,WNW,292,9.6,13.0,53,0.00,,,0.00,WUHU21623XXSP,2013-03-14 21:55:00,
2013-03-14 15:00:00,74.8,56.7,29.98,SW,225,7.4,13.0,53,0.00,,,0.00,WUHU21623XXSP,2013-03-14 22:00:00,
2013-03-14 15:05:00,75.0,56.3,29.98,West,270,9.2,13.0,52,0.00,,,0.00,WUHU21623XXSP,2013-03-14 22:05:00,
2013-03-14 15:10:00,75.2,56.5,29.98,West,270,8.1,13.2,52,0.00,,,0.00,WUHU21623XXSP,2013-03-14 22:10:00,
2013-03-14 15:15:00,75.2,56.5,29.98,West,270,8.1,13.2,52,0.00,,,0.00,WUHU21623XXSP,2013-03-14 22:15:00,
2013-03-14 15:20:00,75.2,56.5,29.97,WSW,247,9.8,12.8,52,0.00,,,0.00,WUHU21623XXSP,2013-03-14 22:20:00,
2013-03-14 15:25:00,75.2,55.9,29.97,West,270,8.3,13.2,51,0.00,,,0.00,WUHU21623XXSP,2013-03-14 22:25:00,
2013-03-14 15:30:00,75.4,56.1,29.97,West,270,6.5,13.6,51,0.00,,,0.00,WUHU21623XXSP,2013-03-14 22:30:00,
2013-03-14 15:35:00,75.4,56.1,29.97,West,270,6.9,13.6,51,0.00,,,0.00,WUHU21623XXSP,2013-03-14 22:35:00,
2013-03-14 15:40:00,75.2,55.9,29.98,WSW,247,11.0,15.4,51,0.00,,,0.00,WUHU21623XXSP,2013-03-14 22:40:00,
2013-03-14 15:45:00,75.2,55.9,29.98,WSW,247,7.8,15.4,51,0.00,,,0.00,WUHU21623XXSP,2013-03-14 22:45:00,
2013-03-14 15:50:00,75.2,55.9,29.97,WSW,247,11.4,13.6,51,0.00,,,0.00,WUHU21623XXSP,2013-03-14 22:50:00,
2013-03-14 15:55:00,74.8,55.6,29.98,WSW,247,12.1,15.7,51,0.00,,,0.00,WUHU21623XXSP,2013-03-14 22:55:00,
2013-03-14 16:00:00,74.8,55.6,29.97,WSW,244,11.6,15.7,51,0.00,,,0.00,WUHU21623XXSP,2013-03-14 23:00:00,
2013-03-14 16:05:00,74.6,55.4,29.98,WSW,247,10.5,15.0,51,0.00,,,0.00,WUHU21623XXSP,2013-03-14 23:05:00,
2013-03-14 16:10:00,74.3,55.1,29.98,WSW,247,12.5,15.0,51,0.00,,,0.00,WUHU21623XXSP,2013-03-14 23:10:00,
2013-03-14 16:15:00,74.1,54.4,29.98,WSW,247,13.0,15.2,50,0.00,,,0.00,WUHU21623XXSP,2013-03-14 23:15:00,
2013-03-14 16:20:00,73.9,55.3,29.97,WSW,247,8.1,15.2,52,0.00,,,0.00,WUHU21623XXSP,2013-03-14 23:20:00,
2013-03-14 16:25:00,73.9,54.7,29.97,West,270,11.2,15.2,51,0.00,,,0.00,WUHU21623XXSP,2013-03-14 23:25:00,
2013-03-14 16:30:00,73.7,54.5,29.97,WNW,292,13.0,15.4,51,0.00,,,0.00,WUHU21623XXSP,2013-03-14 23:30:00,
2013-03-14 16:35:00,73.7,54.5,29.98,WSW,257,11.7,15.4,51,0.00,,,0.00,WUHU21623XXSP,2013-03-14 23:35:00,
2013-03-14 16:40:00,73.4,54.3,29.97,West,270,8.3,14.8,51,0.00,,,0.00,WUHU21623XXSP,2013-03-14 23:40:00,
2013-03-14 16:45:00,72.5,52.3,29.97,WSW,247,10.3,13.4,49,0.00,,,0.00,WUHU21623XXSP,2013-03-14 23:45:00,
2013-03-14 16:50:00,70.3,51.9,29.97,WSW,247,8.9,15.2,52,0.00,,,0.00,WUHU21623XXSP,2013-03-14 23:50:00,
2013-03-14 16:55:00,70.3,51.9,29.97,WSW,247,12.3,15.2,52,0.00,,,0.00,WUHU21623XXSP,2013-03-14 23:55:00,
2013-03-14 17:00:00,70.1,51.7,29.97,WSW,247,12.1,13.0,52,0.00,,,0.00,WUHU21623XXSP,2013-03-15 00:00:00,
2013-03-14 17:05:00,69.4,51.1,29.97,West,270,7.2,13.0,52,0.00,,,0.00,WUHU21623XXSP,2013-03-15 00:05:00,
2013-03-14 17:10:00,69.2,51.4,29.97,WSW,247,7.2,11.4,53,0.00,,,0.00,WUHU21623XXSP,2013-03-15 00:10:00,
2013-03-14 17:15:00,68.5,50.3,29.98,WSW,247,8.1,11.2,52,0.00,,,0.00,WUHU21623XXSP,2013-03-15 00:15:00,
2013-03-14 17:20:00,67.8,49.1,29.98,WSW,247,11.4,11.9,51,0.00,,,0.00,WUHU21623XXSP,2013-03-15 00:20:00,
2013-03-14 17:25:00,67.1,48.4,29.97,WSW,247,12.5,12.5,51,0.00,,,0.00,WUHU21623XXSP,2013-03-15 00:25:00,
2013-03-14 17:30:00,66.5,47.9,29.97,WSW,247,12.5,12.5,51,0.00,,,0.00,WUHU21623XXSP,2013-03-15 00:30:00,
2013-03-14 17:35:00,66.2,47.6,29.97,WSW,247,6.9,13.6,51,0.00,,,0.00,WUHU21623XXSP,2013-03-15 00:35:00,
2013-03-14 17:40:00,65.8,48.3,29.97,WSW,247,13.6,13.6,53,0.00,,,0.00,WUHU21623XXSP,2013-03-15 00:40:00,
2013-03-14 17:45:00,65.3,48.3,29.97,WSW,247,14.8,15.4,54,0.00,,,0.00,WUHU21623XXSP,2013-03-15 00:45:00,
2013-03-14 17:50:00,64.7,48.8,29.96,SW,225,7.6,15.4,56,0.00,,,0.00,WUHU21623XXSP,2013-03-15 00:50:00,
2013-03-14 17:55:00,64.2,48.8,29.97,SW,225,9.4,13.0,57,0.00,,,0.00,WUHU21623XXSP,2013-03-15 00:55:00,
2013-03-14 18:00:00,63.5,49.1,29.96,SW,225,4.9,11.4,59,0.00,,,0.00,WUHU21623XXSP,2013-03-15 01:00:00,
2013-03-14 18:05:00,63.1,48.7,29.97,SW,225,4.7,11.4,59,0.00,,,0.00,WUHU21623XXSP,2013-03-15 01:05:00,
2013-03-14 18:10:00,62.8,48.8,29.97,SW,225,2.5,6.7,60,0.00,,,0.00,WUHU21623XXSP,2013-03-15 01:10:00,
2013-03-14 18:15:00,62.6,48.7,29.97,SW,225,6.3,9.2,60,0.00,,,0.00,WUHU21623XXSP,2013-03-15 01:15:00,
2013-03-14 18:20:00,62.0,48.5,29.97,SW,225,6.7,9.2,61,0.00,,,0.00,WUHU21623XXSP,2013-03-15 01:20:00,
2013-03-14 18:25:00,61.5,48.5,29.96,WSW,247,5.4,8.3,62,0.00,,,0.00,WUHU21623XXSP,2013-03-15 01:25:00,
2013-03-14 18:30:00,61.0,48.0,29.96,SW,225,6.7,7.8,62,0.00,,,0.00,WUHU21623XXSP,2013-03-15 01:30:00,
2013-03-14 18:35:00,60.8,47.8,29.96,SW,225,4.9,8.5,62,0.00,,,0.00,WUHU21623XXSP,2013-03-15 01:35:00,
2013-03-14 18:40:00,60.2,47.3,29.96,SW,225,3.8,8.5,62,0.00,,,0.00,WUHU21623XXSP,2013-03-15 01:40:00,
2013-03-14 18:45:00,59.7,46.8,29.96,WSW,247,5.6,10.5,62,0.00,,,0.00,WUHU21623XXSP,2013-03-15 01:45:00,
2013-03-14 18:50:00,59.9,47.0,29.96,WSW,247,8.3,11.4,62,0.00,,,0.00,WUHU21623XXSP,2013-03-15 01:50:00,
2013-03-14 18:55:00,60.4,47.5,29.96,WSW,247,8.7,11.4,62,0.00,,,0.00,WUHU21623XXSP,2013-03-15 01:55:00,
2013-03-14 19:00:00,60.8,47.4,29.96,WSW,247,7.8,9.6,61,0.00,,,0.00,WUHU21623XXSP,2013-03-15 02:00:00,
2013-03-14 19:05:00,60.8,47.4,29.95,SW,225,5.6,8.9,61,0.00,,,0.00,WUHU21623XXSP,2013-03-15 02:05:00,
2013-03-14 19:10:00,61.1,47.2,29.94,WSW,247,3.4,8.1,60,0.00,,,0.00,WUHU21623XXSP,2013-03-15 02:10:00,
2013-03-14 19:15:00,61.3,47.4,29.95,WSW,247,4.0,7.6,60,0.00,,,0.00,WUHU21623XXSP,2013-03-15 02:15:00,
2013-03-14 19:20:00,61.1,46.8,29.94,WSW,247,2.9,5.4,59,0.00,,,0.00,WUHU21623XXSP,2013-03-15 02:20:00,
2013-03-14 19:25:00,61.0,46.7,29.95,SW,225,0.0,2.9,59,0.00,,,0.00,WUHU21623XXSP,2013-03-15 02:25:00,
2013-03-14 19:30:00,60.6,46.3,29.95,WSW,247,0.0,2.5,59,0.00,,,0.00,WUHU21623XXSP,2013-03-15 02:30:00,
2013-03-14 19:35:00,60.4,46.1,29.95,WSW,247,0.0,0.0,59,0.00,,,0.00,WUHU21623XXSP,2013-03-15 02:35:00,
2013-03-14 19:40:00,60.4,46.1,29.95,West,270,0.0,0.0,59,0.00,,,0.00,WUHU21623XXSP,2013-03-15 02:40:00,
2013-03-14 19:45:00,60.2,45.9,29.95,West,270,0.0,0.0,59,0.00,,,0.00,WUHU21623XXSP,2013-03-15 02:45:00,
2013-03-14 19:50:00,60.2,45.9,29.95,West,270,0.0,0.0,59,0.00,,,0.00,WUHU21623XXSP,2013-03-15 02:50:00,
2013-03-14 19:55:00,60.2,45.9,29.95,WSW,247,2.7,2.9,59,0.00,,,0.00,WUHU21623XXSP,2013-03-15 02:55:00,
2013-03-14 20:00:00,60.4,46.1,29.95,WSW,247,0.0,2.9,59,0.00,,,0.00,WUHU21623XXSP,2013-03-15 03:00:00,
2013-03-14 20:05:00,60.4,46.1,29.95,West,270,0.0,2.7,59,0.00,,,0.00,WUHU21623XXSP,2013-03-15 03:05:00,
2013-03-14 20:10:00,60.1,45.8,29.95,West,270,0.0,0.0,59,0.00,,,0.00,WUHU21623XXSP,2013-03-15 03:10:00,
2013-03-14 20:15:00,59.7,45.5,29.96,West,270,0.0,0.0,59,0.00,,,0.00,WUHU21623XXSP,2013-03-15 03:15:00,
2013-03-14 20:20:00,59.5,45.3,29.96,West,270,0.0,0.0,59,0.00,,,0.00,WUHU21623XXSP,2013-03-15 03:20:00,
2013-03-14 20:25:00,59.3,45.1,29.96,West,270,0.0,0.0,59,0.00,,,0.00,WUHU21623XXSP,2013-03-15 03:25:00,
2013-03-14 20:30:00,59.3,45.1,29.96,West,270,0.0,0.0,59,0.00,,,0.00,WUHU21623XXSP,2013-03-15 03:30:00,
2013-03-14 20:35:00,59.0,44.8,29.95,West,270,0.0,0.0,59,0.00,,,0.00,WUHU21623XXSP,2013-03-15 03:35:00,
2013-03-14 20:40:00,59.0,44.8,29.95,North,0,0.0,1.3,59,0.00,,,0.00,WUHU21623XXSP,2013-03-15 03:40:00,
2013-03-14 20:45:00,59.2,45.0,29.95,North,0,0.0,1.3,59,0.00,,,0.00,WUHU21623XXSP,2013-03-15 03:45:00,
2013-03-14 20:50:00,59.0,44.8,29.95,North,0,0.0,0.0,59,0.00,,,0.00,WUHU21623XXSP,2013-03-15 03:50:00,
2013-03-14 20:55:00,58.4,44.7,29.96,NNE,22,0.0,0.0,60,0.00,,,0.00,WUHU21623XXSP,2013-03-15 03:55:00,
2013-03-14 21:00:00,58.4,44.2,29.96,North,0,0.0,0.0,59,0.00,,,0.00,WUHU21623XXSP,2013-03-15 04:00:00,
2013-03-14 21:05:00,58.1,44.0,29.95,North,0,0.0,0.0,59,0.00,,,0.00,WUHU21623XXSP,2013-03-15 04:05:00,
2013-03-14 21:10:00,57.9,44.2,29.96,North,0,0.0,0.0,60,0.00,,,0.00,WUHU21623XXSP,2013-03-15 04:10:00,
2013-03-14 21:15:00,57.7,44.0,29.96,North,0,0.0,0.0,60,0.00,,,0.00,WUHU21623XXSP,2013-03-15 04:15:00,
2013-03-14 21:20:00,57.5,43.8,29.97,North,0,0.0,0.0,60,0.00,,,0.00,WUHU21623XXSP,2013-03-15 04:20:00,
2013-03-14 21:25:00,57.2,43.6,29.96,NNW,337,0.0,0.0,60,0.00,,,0.00,WUHU21623XXSP,2013-03-15 04:25:00,
2013-03-14 21:30:00,57.5,43.8,29.96,NW,315,0.0,4.5,60,0.00,,,0.00,WUHU21623XXSP,2013-03-15 04:30:00,
2013-03-14 21:35:00,57.4,43.7,29.97,NW,315,0.0,4.5,60,0.00,,,0.00,WUHU21623XXSP,2013-03-15 04:35:00,
2013-03-14 21:40:00,56.8,43.2,29.96,NW,315,0.0,0.0,60,0.00,,,0.00,WUHU21623XXSP,2013-03-15 04:40:00,
2013-03-14 21:45:00,56.6,43.4,29.96,East,90,0.0,0.0,61,0.00,,,0.00,WUHU21623XXSP,2013-03-15 04:45:00,
2013-03-14 21:50:00,55.9,42.8,29.95,East,90,0.0,0.0,61,0.00,,,0.00,WUHU21623XXSP,2013-03-15 04:50:00,
2013-03-14 21:55:00,55.7,42.6,29.95,East,90,0.0,0.0,61,0.00,,,0.00,WUHU21623XXSP,2013-03-15 04:55:00,
2013-03-14 22:00:00,55.6,42.5,29.96,NW,315,0.0,2.2,61,0.00,,,0.00,WUHU21623XXSP,2013-03-15 05:00:00,
2013-03-14 22:05:00,55.0,41.9,29.96,NNW,337,0.0,2.2,61,0.00,,,0.00,WUHU21623XXSP,2013-03-15 05:05:00,
2013-03-14 22:10:00,54.8,42.1,29.96,NNW,337,3.8,6.5,62,0.00,,,0.00,WUHU21623XXSP,2013-03-15 05:10:00,
2013-03-14 22:15:00,54.5,41.9,29.96,NNW,337,0.0,6.5,62,0.00,,,0.00,WUHU21623XXSP,2013-03-15 05:15:00,
2013-03-14 22:20:00,54.5,41.9,29.96,NW,315,1.6,4.5,62,0.00,,,0.00,WUHU21623XXSP,2013-03-15 05:20:00,
2013-03-14 22:25:00,54.3,41.7,29.96,NNW,337,0.0,3.4,62,0.00,,,0.00,WUHU21623XXSP,2013-03-15 05:25:00,
2013-03-14 22:30:00,53.9,41.3,29.96,NNW,337,0.0,2.2,62,0.00,,,0.00,WUHU21623XXSP,2013-03-15 05:30:00,
2013-03-14 22:35:00,53.6,41.0,29.96,NNW,337,1.8,2.5,62,0.00,,,0.00,WUHU21623XXSP,2013-03-15 05:35:00,
2013-03-14 22:40:00,53.2,40.6,29.96,NNW,337,4.0,5.6,62,0.00,,,0.00,WUHU21623XXSP,2013-03-15 05:40:00,
2013-03-14 22:45:00,53.0,40.4,29.96,NW,315,3.6,6.0,62,0.00,,,0.00,WUHU21623XXSP,2013-03-15 05:45:00,
2013-03-14 22:50:00,52.9,40.3,29.96,NW,315,0.0,6.0,62,0.00,,,0.00,WUHU21623XXSP,2013-03-15 05:50:00,
2013-03-14 22:55:00,52.5,40.4,29.95,NNW,337,0.0,5.4,63,0.00,,,0.00,WUHU21623XXSP,2013-03-15 05:55:00,
2013-03-14 23:00:00,52.3,40.2,29.96,North,0,0.0,0.0,63,0.00,,,0.00,WUHU21623XXSP,2013-03-15 06:00:00,
2013-03-14 23:05:00,52.1,40.0,29.96,NNW,337,0.0,0.0,63,0.00,,,0.00,WUHU21623XXSP,2013-03-15 06:05:00,
2013-03-14 23:10:00,52.5,40.4,29.96,North,0,0.0,0.0,63,0.00,,,0.00,WUHU21623XXSP,2013-03-15 06:10:00,
2013-03-14 23:15:00,52.5,40.0,29.96,SW,225,0.0,0.0,62,0.00,,,0.00,WUHU21623XXSP,2013-03-15 06:15:00,
2013-03-14 23:20:00,52.1,39.6,29.96,SW,225,0.0,0.0,62,0.00,,,0.00,WUHU21623XXSP,2013-03-15 06:20:00,
2013-03-14 23:25:00,51.8,39.3,29.96,SW,225,0.0,0.0,62,0.00,,,0.00,WUHU21623XXSP,2013-03-15 06:25:00,
2013-03-14 23:30:00,51.4,38.9,29.97,SW,225,0.0,0.0,62,0.00,,,0.00,WUHU21623XXSP,2013-03-15 06:30:00,
2013-03-14 23:35:00,51.1,39.0,29.97,SW,225,0.0,0.0,63,0.00,,,0.00,WUHU21623XXSP,2013-03-15 06:35:00,
2013-03-14 23:40:00,50.9,38.9,29.97,SW,225,0.0,0.0,63,0.00,,,0.00,WUHU21623XXSP,2013-03-15 06:40:00,
2013-03-14 23:45:00,50.7,38.7,29.97,SW,225,0.0,0.0,63,0.00,,,0.00,WUHU21623XXSP,2013-03-15 06:45:00,
2013-03-14 23:50:00,50.3,38.3,29.97,SE,135,0.0,0.0,63,0.00,,,0.00,WUHU21623XXSP,2013-03-15 06:50:00,
2013-03-14 23:55:00,50.2,38.2,29.96,SE,135,0.0,0.0,63,0.00,,,0.00,WUHU21623XXSP,2013-03-15 06:55:00,